TimeCST,TemperatureF,Dew PointF,Humidity,Sea Level PressureIn,VisibilityMPH,Wind Direction,Wind SpeedMPH,Gust SpeedMPH,PrecipitationIn,Events,Conditions,WindDirDegrees,DateUTC
12:15 AM,20.3,10.4,66,30.30,10.0,West,5.8,-,N/A,,Clear,280,2013-02-20 06:15:00
12:35 AM,20.3,10.4,66,30.31,10.0,West,9.2,-,N/A,,Clear,280,2013-02-20 06:35:00
12:55 AM,20.8,9.5,62,30.32,10.0,WNW,8.1,16.1,N/A,,Clear,290,2013-02-20 06:55:00
1:15 AM,20.1,10.2,66,30.31,10.0,NW,9.2,-,N/A,,Clear,310,2013-02-20 07:15:00
1:35 AM,19.9,10.0,65,30.31,10.0,NW,9.2,-,N/A,,Scattered Clouds,310,2013-02-20 07:35:00
1:55 AM,19.4,10.4,68,30.32,10.0,WNW,6.9,-,N/A,,Clear,300,2013-02-20 07:55:00
2:15 AM,19.0,10.8,70,30.33,10.0,NW,6.9,-,N/A,,Clear,320,2013-02-20 08:15:00
2:35 AM,18.9,10.2,69,30.32,10.0,NW,8.1,-,N/A,,Clear,320,2013-02-20 08:35:00
2:55 AM,17.6,10.4,73,30.33,10.0,NNW,11.5,-,N/A,,Clear,330,2013-02-20 08:55:00
3:15 AM,17.6,8.4,67,30.32,10.0,NNW,10.4,-,N/A,,Scattered Clouds,330,2013-02-20 09:15:00
3:35 AM,17.1,9.0,71,30.32,10.0,NNW,9.2,-,N/A,,Scattered Clouds,330,2013-02-20 09:35:00
3:55 AM,16.2,9.5,75,30.31,10.0,North,8.1,-,N/A,,Scattered Clouds,350,2013-02-20 09:55:00
4:15 AM,15.4,9.3,77,30.32,10.0,North,9.2,-,N/A,,Scattered Clouds,350,2013-02-20 10:15:00
4:35 AM,14.7,8.6,77,30.32,10.0,North,12.7,-,N/A,,Scattered Clouds,350,2013-02-20 10:35:00
4:55 AM,13.8,7.7,77,30.33,10.0,North,9.2,-,N/A,,Clear,360,2013-02-20 10:55:00
5:15 AM,12.7,5.9,74,30.34,10.0,North,9.2,-,N/A,,Clear,350,2013-02-20 11:15:00
5:35 AM,12.2,5.9,76,30.35,10.0,North,5.8,-,N/A,,Scattered Clouds,350,2013-02-20 11:35:00
5:55 AM,12.2,5.0,73,30.36,10.0,NNW,5.8,-,N/A,,Scattered Clouds,340,2013-02-20 11:55:00
6:15 AM,11.5,5.9,78,30.37,10.0,NNW,5.8,-,N/A,,Scattered Clouds,340,2013-02-20 12:15:00
6:35 AM,11.3,5.5,78,30.38,10.0,NNW,5.8,-,N/A,,Scattered Clouds,340,2013-02-20 12:35:00
6:55 AM,10.9,5.0,77,30.38,10.0,North,5.8,-,N/A,,Clear,350,2013-02-20 12:55:00
7:15 AM,11.1,5.5,78,30.38,10.0,North,5.8,-,N/A,,Clear,360,2013-02-20 13:15:00
7:35 AM,11.7,5.5,76,30.38,10.0,North,6.9,-,N/A,,Clear,360,2013-02-20 13:35:00
7:55 AM,11.8,5.2,75,30.38,10.0,North,8.1,-,N/A,,Clear,360,2013-02-20 13:55:00
8:15 AM,12.2,4.1,70,30.39,10.0,North,5.8,-,N/A,,Clear,360,2013-02-20 14:15:00
8:35 AM,12.9,3.7,67,30.41,10.0,NNW,4.6,-,N/A,,Clear,340,2013-02-20 14:35:00
8:55 AM,14.0,5.0,67,30.43,10.0,Calm,Calm,-,N/A,,Scattered Clouds,0,2013-02-20 14:55:00
9:15 AM,14.0,4.8,67,30.41,10.0,Calm,Calm,-,N/A,,Clear,0,2013-02-20 15:15:00
9:35 AM,14.9,4.5,63,30.42,10.0,North,4.6,-,N/A,,Clear,350,2013-02-20 15:35:00
9:55 AM,16.0,6.1,65,30.41,10.0,NW,4.6,-,N/A,,Clear,320,2013-02-20 15:55:00
10:15 AM,16.9,6.1,63,30.41,10.0,WNW,3.5,-,N/A,,Clear,300,2013-02-20 16:15:00
10:35 AM,18.1,6.8,61,30.43,10.0,West,4.6,-,N/A,,Clear,270,2013-02-20 16:35:00
10:55 AM,18.9,7.7,62,30.44,10.0,Calm,Calm,-,N/A,,Clear,0,2013-02-20 16:55:00
11:15 AM,19.0,8.1,62,30.43,10.0,Calm,Calm,-,N/A,,Clear,0,2013-02-20 17:15:00
11:35 AM,19.4,7.9,61,30.43,10.0,Calm,Calm,-,N/A,,Clear,0,2013-02-20 17:35:00
11:55 AM,19.9,7.9,60,30.43,10.0,Calm,Calm,-,N/A,,Clear,0,2013-02-20 17:55:00
12:15 PM,20.7,8.4,59,30.40,10.0,Calm,Calm,-,N/A,,Clear,0,2013-02-20 18:15:00
12:35 PM,21.6,9.1,59,30.39,10.0,Calm,Calm,-,N/A,,Clear,0,2013-02-20 18:35:00
12:55 PM,21.9,8.4,56,30.38,10.0,NNE,5.8,-,N/A,,Clear,30,2013-02-20 18:55:00
1:15 PM,22.1,8.4,56,30.38,10.0,NNE,4.6,-,N/A,,Clear,30,2013-02-20 19:15:00
1:35 PM,21.9,8.4,56,30.37,10.0,ENE,4.6,-,N/A,,Clear,60,2013-02-20 19:35:00
1:55 PM,23.0,9.3,56,30.35,10.0,ENE,6.9,-,N/A,,Clear,60,2013-02-20 19:55:00
2:15 PM,22.8,8.4,54,30.35,10.0,NNE,3.5,-,N/A,,Clear,30,2013-02-20 20:15:00
2:35 PM,23.0,8.6,54,30.36,10.0,Calm,Calm,-,N/A,,Clear,0,2013-02-20 20:35:00
2:55 PM,23.0,8.6,54,30.36,10.0,North,3.5,-,N/A,,Clear,10,2013-02-20 20:55:00
3:15 PM,23.4,9.0,54,30.35,10.0,Calm,Calm,-,N/A,,Clear,0,2013-02-20 21:15:00
3:35 PM,23.5,9.7,56,30.34,10.0,NE,3.5,-,N/A,,Clear,50,2013-02-20 21:35:00
3:55 PM,23.2,9.7,56,30.33,10.0,North,3.5,-,N/A,,Clear,10,2013-02-20 21:55:00
4:15 PM,23.7,10.8,58,30.33,10.0,NNE,5.8,-,N/A,,Clear,30,2013-02-20 22:15:00
4:35 PM,23.9,10.6,57,30.33,10.0,NNE,5.8,-,N/A,,Clear,30,2013-02-20 22:35:00
4:55 PM,23.5,10.2,57,30.33,10.0,North,6.9,-,N/A,,Clear,10,2013-02-20 22:55:00
5:15 PM,23.7,10.6,57,30.33,10.0,NE,5.8,-,N/A,,Clear,50,2013-02-20 23:15:00
5:35 PM,23.5,11.1,59,30.32,10.0,NE,5.8,-,N/A,,Clear,50,2013-02-20 23:35:00
5:55 PM,23.5,11.1,59,30.31,10.0,NE,5.8,-,N/A,,Clear,40,2013-02-20 23:55:00
6:15 PM,23.4,11.5,60,30.31,10.0,ENE,5.8,-,N/A,,Clear,60,2013-02-21 00:15:00
6:35 PM,23.4,11.8,61,30.30,10.0,ENE,8.1,-,N/A,,Clear,60,2013-02-21 00:35:00
6:55 PM,23.0,12.0,63,30.31,10.0,ENE,5.8,-,N/A,,Clear,60,2013-02-21 00:55:00
7:15 PM,23.0,12.6,64,30.31,10.0,ENE,6.9,-,N/A,,Clear,60,2013-02-21 01:15:00
7:35 PM,23.0,13.1,66,30.31,10.0,NE,5.8,-,N/A,,Clear,50,2013-02-21 01:35:00
7:55 PM,23.0,14.0,68,30.31,10.0,NE,6.9,-,N/A,,Clear,50,2013-02-21 01:55:00
8:15 PM,23.0,14.2,69,30.32,10.0,ENE,8.1,-,N/A,,Scattered Clouds,60,2013-02-21 02:15:00
8:35 PM,23.0,13.8,68,30.32,10.0,East,5.8,-,N/A,,Scattered Clouds,80,2013-02-21 02:35:00
8:55 PM,23.0,14.0,68,30.32,10.0,ENE,6.9,-,N/A,,Scattered Clouds,70,2013-02-21 02:55:00
9:15 PM,23.0,13.3,66,30.34,10.0,East,4.6,-,N/A,,Scattered Clouds,80,2013-02-21 03:15:00
9:35 PM,22.6,13.8,69,30.34,10.0,NE,4.6,-,N/A,,Scattered Clouds,40,2013-02-21 03:35:00
9:55 PM,22.6,13.8,69,30.34,10.0,NNE,4.6,-,N/A,,Mostly Cloudy,30,2013-02-21 03:55:00
10:15 PM,22.1,14.5,73,30.33,10.0,NE,3.5,-,N/A,,Scattered Clouds,50,2013-02-21 04:15:00
10:35 PM,21.6,14.7,75,30.32,10.0,NE,5.8,-,N/A,,Scattered Clouds,50,2013-02-21 04:35:00
10:55 PM,21.2,14.5,75,30.32,10.0,NE,5.8,-,N/A,,Clear,40,2013-02-21 04:55:00
11:15 PM,21.0,14.7,77,30.33,10.0,ENE,4.6,-,N/A,,Clear,60,2013-02-21 05:15:00
11:35 PM,20.3,14.4,78,30.33,10.0,NE,3.5,-,N/A,,Clear,50,2013-02-21 05:35:00
11:55 PM,20.1,14.0,77,30.33,10.0,ENE,3.5,-,N/A,,Clear,60,2013-02-21 05:55:00